Etusivu
METAR-TAF:

METAR-TAF

Lentoasemat :

Mécheria, Algeria

Leveyspiiri: 34-56N, Pituuspiiri: 000-26W, korkeus merenpinnasta: 1149 m

Tämänhetkinen sää

Tämä raportti tehtiin 37 minuuttia sitten, kello 13.00 UTC
Tuuli 12 kn lännestä
Lämpötila 25°C
Kosteus 26%
Ilmanpaine 1018 hPa
Näkyvyys 10 km tai enemmän
ei pilviä alle 1500 m:ssä eikä cumulonimbus-pilviä

METAR: DAAY 271300Z 28012KT CAVOK 25/04 Q1018

Aika: 14:37 (13:37 UTC)

Sääennuste

Tämä raportti tehtiin 2 tuntia ja 37 minuuttia sitten, kello 11.00 UTC
Ennuste voimassa 27. päivästä klo 12 UTC - 27. päivään klo 21 UTC
Tuuli 14 kn luoteesta
Näkyvyys 10 km tai enemmän
ei pilviä alle 1500 m:ssä eikä cumulonimbus-pilviä
Tulossa
27. päivästä klo 10 UTC - 27. päivään klo 13 UTC
Tuuli 12 kn lännestä/luoteesta

TAF: DAAY 271100Z 2712/2721 31014KT CAVOK BECMG 2710/2713 29012KT

Säähavainnot ja -ennusteet yli 4000 lentoasemalta (METAR- ja TAF-raportit).

Käytössä olevat sääasemat on merkitty karttaan keltaisilla ja punaisilla pisteillä.

Aseta hiiri pisteen päälle nähdäksesi sääaseman nimen.

Klikkaa sitten nähdäksesi säähavainnot ja -ennusteet.

Kartan vaihtaminen: klikkaa mustalla rastilla varustettuja vihreitä pisteitä, niin voit zoomata sisään; viivalla varustettua vihreää pistettä, niin voit zoomata ulos tai vihreitä nuolia, niin pääset viereisille kartoille.


METAR-TAF: